Federal Manitou — V2CE9 — position and weather

sailwx.info

Track history (hours):
 
Tides and Currents Weather Stations Pressure Air Temp Water Temp Dewpoint Dewpoint Depression Visibility Wind Speed Wind Dir Waves Ship Positions

Federal Manitou

Last reported at 2018-Jul-17 09:43 UTC. Time now 2018-Jul-19 13:18 UTC.
Position N 45°43' W 085°60'.

Length 185.1 m; beam 23.5 m; draft 9.8 m.

Type: Cargo ship. MMSI: 304603000.

Date/timePositionNaut miles runAvg speedWind from/ knotsBaromVisibWave heightAir tempDewpointWater temp
2018-Jul-17 09:43N 45°43' W 085°60'313.5
2018-Jul-17 09:29N 45°45' W 085°56'713.6
2018-Jul-17 08:58N 45°48' W 085°47'713.6
2018-Jul-17 08:29N 45°52' W 085°39'612.8
2018-Jul-17 08:00N 45°53' W 085°30'613.2
2018-Jul-17 07:30N 45°53' W 085°21'713.3
2018-Jul-17 07:00N 45°52' W 085°12'713.3
2018-Jul-17 06:30N 45°51' W 085°02'713.2
2018-Jul-17 06:00N 45°50' W 084°53'613.1
2018-Jul-17 05:30N 45°49' W 084°44'712.9
2018-Jul-17 05:00N 45°46' W 084°35'613.1
2018-Jul-17 04:30N 45°43' W 084°27'712.8
2018-Jul-17 03:59N 45°41' W 084°18'1011.7
2018-Jul-17 03:07N 45°37' W 084°05'112.4
2018-Jul-17 03:00N 45°36' W 084°03'613.0
2018-Jul-17 02:30N 45°34' W 083°55'713.1
2018-Jul-17 02:00N 45°31' W 083°46'612.8
2018-Jul-17 01:30N 45°28' W 083°38'713.0
2018-Jul-17 01:00N 45°26' W 083°29'712.9
2018-Jul-17 00:29N 45°22' W 083°22'  
2018-Jul-12 13:28N 45°13' W 074°16'511.2
2018-Jul-12 12:59N 45°14' W 074°09'4 8.7
2018-Jul-12 12:29N 45°13' W 074°03'510.0
2018-Jul-12 12:00N 45°16' W 073°57'3 5.1
2018-Jul-12 11:30N 45°18' W 073°56'1 1.5
2018-Jul-12 11:00N 45°19' W 073°55'0 0.2
2018-Jul-12 10:30N 45°19' W 073°55'0 0.0
2018-Jul-12 10:00N 45°19' W 073°55'1 1.1
2018-Jul-12 09:30N 45°20' W 073°55'4 8.4
2018-Jul-12 09:00N 45°22' W 073°50'5 9.8
2018-Jul-12 08:30N 45°24' W 073°44'3 6.6
2018-Jul-12 07:59N 45°24' W 073°39'3 4.7
2018-Jul-12 07:26N 45°24' W 073°35'3 2.5
2018-Jul-12 06:22N 45°25' W 073°31'3 3.2
2018-Jul-12 05:33N 45°27' W 073°30'2 4.1
2018-Jul-12 05:11N 45°29' W 073°30'5 2.7
2018-Jul-12 03:16N 45°34' W 073°31'1 0.7
2018-Jul-12 01:43N 45°35' W 073°30'1 5.9
2018-Jul-12 01:30N 45°36' W 073°30'4 7.2
2018-Jul-12 01:00N 45°39' W 073°28'4 8.3
2018-Jul-12 00:30N 45°43' W 073°26'4 8.7
2018-Jul-12 00:00N 45°47' W 073°22'5 9.3
2018-Jul-11 23:30N 45°50' W 073°17'5 9.7
2018-Jul-11 23:00N 45°54' W 073°13'5 9.6
2018-Jul-11 22:30N 45°59' W 073°11'3 4.5
2018-Jul-11 21:57N 46°01' W 073°10'0 0.0
2018-Jul-11 21:21N 46°01' W 073°10'0 0.0
2018-Jul-11 21:00N 46°01' W 073°10'0 0.0
2018-Jul-11 20:30N 46°01' W 073°10'0 0.0
2018-Jul-11 19:57N 46°01' W 073°10'0 0.0
2018-Jul-11 19:24N 46°01' W 073°10'0 0.0
2018-Jul-11 18:57N 46°01' W 073°10'0 0.0
2018-Jul-11 18:03N 46°01' W 073°10'0 0.0
2018-Jul-11 17:51N 46°01' W 073°10'0 0.0
2018-Jul-11 17:15N 46°01' W 073°10'0 0.0
2018-Jul-11 16:57N 46°01' W 073°10'0 0.0
2018-Jul-11 16:27N 46°01' W 073°10'0 0.0
2018-Jul-11 15:57N 46°01' W 073°10'0 0.0
2018-Jul-11 15:30N 46°01' W 073°10'0 0.0
2018-Jul-11 14:51N 46°01' W 073°10'0 0.0
2018-Jul-11 14:27N 46°01' W 073°10'0 0.0
2018-Jul-11 14:00N 46°01' W 073°10'0 0.0
2018-Jul-11 13:30N 46°01' W 073°10'0 0.0
2018-Jul-11 12:54N 46°01' W 073°10'0 0.0
2018-Jul-11 12:27N 46°01' W 073°10'0 0.0
2018-Jul-11 11:48N 46°01' W 073°10'0 0.0
2018-Jul-11 11:27N 46°01' W 073°10'0 0.0
2018-Jul-11 10:57N 46°01' W 073°10'0 0.0
2018-Jul-11 10:09N 46°01' W 073°10'0 0.0
2018-Jul-11 09:51N 46°01' W 073°10'0 0.0
2018-Jul-11 09:27N 46°01' W 073°10'0 0.0
2018-Jul-11 08:57N 46°01' W 073°10'0 0.0
2018-Jul-11 08:30N 46°01' W 073°10'0 0.0
2018-Jul-11 07:51N 46°01' W 073°10'0 0.0
2018-Jul-11 07:27N 46°01' W 073°10'0 0.1
2018-Jul-11 07:00N 46°01' W 073°10'0 0.0
2018-Jul-11 06:30N 46°01' W 073°10'0 0.0
2018-Jul-11 06:00N 46°01' W 073°10'0 0.0
2018-Jul-11 05:27N 46°01' W 073°10'0 0.0
2018-Jul-11 04:57N 46°01' W 073°10'0 0.0
2018-Jul-11 04:30N 46°01' W 073°10'0 0.0
2018-Jul-11 04:00N 46°01' W 073°10'0 0.0
2018-Jul-11 03:30N 46°01' W 073°10'0 0.0
2018-Jul-11 02:57N 46°01' W 073°10'0 0.0
2018-Jul-11 02:27N 46°01' W 073°10'0 0.0
2018-Jul-11 02:00N 46°01' W 073°10'0 0.0
2018-Jul-11 01:27N 46°01' W 073°10'0 0.1
2018-Jul-11 01:00N 46°01' W 073°10'0 0.2
2018-Jul-11 00:30N 46°01' W 073°10'2 3.7
2018-Jul-11 00:00N 46°03' W 073°09'2 2.9
2018-Jul-10 23:29N 46°03' W 073°07'0 0.0
2018-Jul-10 22:59N 46°03' W 073°07'0 0.0
2018-Jul-10 22:29N 46°03' W 073°07'0 0.0
2018-Jul-10 21:56N 46°03' W 073°07'0 0.0
2018-Jul-10 21:26N 46°03' W 073°07'0 0.0
2018-Jul-10 20:59N 46°03' W 073°07'0 0.0
2018-Jul-10 20:26N 46°03' W 073°07'0 0.0
2018-Jul-10 19:59N 46°03' W 073°07'0 0.0
2018-Jul-10 19:29N 46°03' W 073°07'0 0.0
2018-Jul-10 18:53N 46°03' W 073°07'0 0.0
2018-Jul-10 18:29N 46°03' W 073°07'0 0.0
2018-Jul-10 17:59N 46°03' W 073°07'0 0.0
2018-Jul-10 17:29N 46°03' W 073°07'0 0.0
2018-Jul-10 16:59N 46°03' W 073°07'0 0.0
2018-Jul-10 16:29N 46°03' W 073°07'0 0.0
2018-Jul-10 15:59N 46°03' W 073°07'0 0.0
2018-Jul-10 15:29N 46°03' W 073°07'0 0.0
2018-Jul-10 14:59N 46°03' W 073°07'0 0.0
2018-Jul-10 14:26N 46°03' W 073°07'0 0.0
2018-Jul-10 13:59N 46°03' W 073°07'0 0.0
2018-Jul-10 13:29N 46°03' W 073°07'0 0.0
2018-Jul-10 12:53N 46°03' W 073°07'0 0.0
2018-Jul-10 12:29N 46°03' W 073°07'0 0.0
2018-Jul-10 11:59N 46°03' W 073°07'0 0.0
2018-Jul-10 11:29N 46°03' W 073°07'0 0.0
2018-Jul-10 10:59N 46°03' W 073°07'0 0.0
2018-Jul-10 10:29N 46°03' W 073°07'0 0.0
2018-Jul-10 09:59N 46°03' W 073°07'0 0.0
2018-Jul-10 09:29N 46°03' W 073°07'0 0.0
2018-Jul-10 08:59N 46°03' W 073°07'0 0.0
2018-Jul-10 08:26N 46°03' W 073°07'0 0.0
2018-Jul-10 07:53N 46°03' W 073°07'0 0.0
2018-Jul-10 07:26N 46°03' W 073°07'0 0.0
2018-Jul-10 06:59N 46°03' W 073°07'0 0.0
2018-Jul-10 06:29N 46°03' W 073°07'0 0.0
2018-Jul-10 05:59N 46°03' W 073°07'0 0.0
2018-Jul-10 05:29N 46°03' W 073°07'0 0.0
2018-Jul-10 04:59N 46°03' W 073°07'0 0.0
2018-Jul-10 04:29N 46°03' W 073°07'0 0.0
2018-Jul-10 03:59N 46°03' W 073°07'0 0.0
2018-Jul-10 03:29N 46°03' W 073°07'0 0.0
2018-Jul-10 02:59N 46°03' W 073°07'0 0.0
2018-Jul-10 02:29N 46°03' W 073°07'0 0.0
2018-Jul-10 01:59N 46°03' W 073°07'0 0.0
2018-Jul-10 01:29N 46°03' W 073°07'0 0.0
2018-Jul-10 00:56N 46°03' W 073°07'0 0.0
2018-Jul-10 00:29N 46°03' W 073°07'0 0.0
2018-Jul-09 23:56N 46°03' W 073°07'0 0.0
2018-Jul-09 23:29N 46°03' W 073°07'0 0.0
2018-Jul-09 22:59N 46°03' W 073°07'0 0.0
2018-Jul-09 22:29N 46°03' W 073°07'0 0.0
2018-Jul-09 21:59N 46°03' W 073°07'0 0.0
2018-Jul-09 21:26N 46°03' W 073°07'0 0.0
2018-Jul-09 20:59N 46°03' W 073°07'0 0.0
2018-Jul-09 20:29N 46°03' W 073°07'0 0.0
2018-Jul-09 19:59N 46°03' W 073°07'0 0.0
2018-Jul-09 19:29N 46°03' W 073°07'0 0.0
2018-Jul-09 18:59N 46°03' W 073°07'0 0.0
2018-Jul-09 18:29N 46°03' W 073°07'0 0.0
2018-Jul-09 17:59N 46°03' W 073°07'0 0.0
2018-Jul-09 17:29N 46°03' W 073°07'0 0.0
2018-Jul-09 16:56N 46°03' W 073°07'0 0.0
2018-Jul-09 16:29N 46°03' W 073°07'0 0.0
2018-Jul-09 15:59N 46°03' W 073°07'0 0.0
2018-Jul-09 15:26N 46°03' W 073°07'0 0.0
2018-Jul-09 14:59N 46°03' W 073°07'0 0.0
2018-Jul-09 14:29N 46°03' W 073°07'0 0.0
2018-Jul-09 13:53N 46°03' W 073°07'0 0.0
2018-Jul-09 13:29N 46°03' W 073°07'0 0.0
2018-Jul-09 12:59N 46°03' W 073°07'0 0.0
2018-Jul-09 12:26N 46°03' W 073°07'0 0.0
2018-Jul-09 05:38N 46°03' W 073°07'0 0.0
2018-Jul-09 05:26N 46°03' W 073°07'0 0.0
2018-Jul-09 04:59N 46°03' W 073°07'0 0.0
2018-Jul-09 04:26N 46°03' W 073°07'0 0.0
2018-Jul-09 03:59N 46°03' W 073°07'0 0.0
2018-Jul-09 03:26N 46°03' W 073°07'0 0.0
2018-Jul-09 02:56N 46°03' W 073°07'0 0.0
2018-Jul-09 02:26N 46°03' W 073°07'0 0.0
2018-Jul-09 01:59N 46°03' W 073°07'0 0.0
2018-Jul-09 01:26N 46°03' W 073°07'0 0.0
2018-Jul-09 00:59N 46°03' W 073°07'0 0.0
2018-Jul-09 00:29N 46°03' W 073°07'0 0.0
2018-Jul-08 23:59N 46°03' W 073°07'0 0.0
2018-Jul-08 23:29N 46°03' W 073°07'0 0.0
2018-Jul-08 22:59N 46°03' W 073°07'0 0.0
2018-Jul-08 22:20N 46°03' W 073°07'0 0.0
2018-Jul-08 21:53N 46°03' W 073°07'0 0.0
2018-Jul-08 21:29N 46°03' W 073°07'0 0.0
2018-Jul-08 20:59N 46°03' W 073°07'0 0.0
2018-Jul-08 20:29N 46°03' W 073°07'0 0.0
2018-Jul-08 19:59N 46°03' W 073°07'0 0.0
2018-Jul-08 19:23N 46°03' W 073°07'0 0.0
2018-Jul-08 18:59N 46°03' W 073°07'0 0.0
2018-Jul-08 18:29N 46°03' W 073°07'0 0.0
2018-Jul-08 17:59N 46°03' W 073°07'0 0.0
2018-Jul-08 17:23N 46°03' W 073°07'0 0.0
2018-Jul-08 16:56N 46°03' W 073°07'0 0.0
2018-Jul-08 16:29N 46°03' W 073°07'0 0.0
2018-Jul-08 15:59N 46°03' W 073°07'0 0.0
2018-Jul-08 15:26N 46°03' W 073°07'0 0.0
2018-Jul-08 14:59N 46°03' W 073°07'0 0.0
2018-Jul-08 14:17N 46°03' W 073°07'0 0.0
2018-Jul-08 13:59N 46°03' W 073°07'0 0.0
2018-Jul-08 13:26N 46°03' W 073°07'0 0.0
2018-Jul-08 12:59N 46°03' W 073°07'0 0.0
2018-Jul-08 12:29N 46°03' W 073°07'0 0.0
2018-Jul-08 11:59N 46°03' W 073°07'0 0.0
2018-Jul-08 11:29N 46°03' W 073°07'0 0.0
2018-Jul-08 10:59N 46°03' W 073°07'0 0.0
2018-Jul-08 10:29N 46°03' W 073°07'0 0.0
2018-Jul-08 09:59N 46°03' W 073°07'0 0.0
2018-Jul-08 09:29N 46°03' W 073°07'0 0.0
2018-Jul-08 08:59N 46°03' W 073°07'0 0.0
2018-Jul-08 08:29N 46°03' W 073°07'0 0.0
2018-Jul-08 07:59N 46°03' W 073°07'0 0.0
2018-Jul-08 07:26N 46°03' W 073°07'0 0.0
2018-Jul-08 06:59N 46°03' W 073°07'0 0.0
2018-Jul-08 06:23N 46°03' W 073°07'0 0.0
2018-Jul-08 05:59N 46°03' W 073°07'0 0.0
2018-Jul-08 05:29N 46°03' W 073°07'0 0.0
2018-Jul-08 04:59N 46°03' W 073°07'0 0.0
2018-Jul-08 04:30N 46°03' W 073°07'0 0.6
2018-Jul-08 04:00N 46°03' W 073°07'0 0.7
2018-Jul-08 03:30N 46°03' W 073°07'0 0.0
2018-Jul-08 02:58N 46°03' W 073°07'0 0.0
2018-Jul-08 02:28N 46°03' W 073°07'0 0.0
2018-Jul-08 01:58N 46°03' W 073°07'0 0.0
2018-Jul-08 01:28N 46°03' W 073°07'0 0.0
2018-Jul-08 00:58N 46°03' W 073°07'0 0.0
2018-Jul-08 00:25N 46°03' W 073°07'0 0.0
2018-Jul-07 23:55N 46°03' W 073°07'0 0.0
2018-Jul-07 23:28N 46°03' W 073°07'0 0.0
2018-Jul-07 22:49N 46°03' W 073°07'0 0.0
2018-Jul-07 22:22N 46°03' W 073°07'0 0.0
2018-Jul-07 21:58N 46°03' W 073°07'0 0.0
2018-Jul-07 21:25N 46°03' W 073°07'0 0.0
2018-Jul-07 20:58N 46°03' W 073°07'0 0.0
2018-Jul-07 20:28N 46°03' W 073°07'0 0.0
2018-Jul-07 19:58N 46°03' W 073°07'0 0.0
2018-Jul-07 19:28N 46°03' W 073°07'0 0.0
2018-Jul-07 18:55N 46°03' W 073°07'0 0.0
2018-Jul-07 18:25N 46°03' W 073°07'0 0.0
2018-Jul-07 17:58N 46°03' W 073°07'0 0.0
2018-Jul-07 17:25N 46°03' W 073°07'0 0.0
2018-Jul-07 16:58N 46°03' W 073°07'0 0.0
2018-Jul-07 16:28N 46°03' W 073°07'0 0.0
2018-Jul-07 15:49N 46°03' W 073°07'0 0.0
2018-Jul-07 15:28N 46°03' W 073°07'0 0.0
2018-Jul-07 14:58N 46°03' W 073°07'0 0.0
2018-Jul-07 14:28N 46°03' W 073°07'0 0.0
2018-Jul-07 13:58N 46°03' W 073°07'0 0.0
2018-Jul-07 13:28N 46°03' W 073°07'0 0.0
2018-Jul-07 12:55N 46°03' W 073°07'0 0.0
2018-Jul-07 12:22N 46°03' W 073°07'0 0.0
2018-Jul-07 11:52N 46°03' W 073°07'0 0.0
2018-Jul-07 11:28N 46°03' W 073°07'0 0.0
2018-Jul-07 10:58N 46°03' W 073°07'0 0.0
2018-Jul-07 10:25N 46°03' W 073°07'0 0.0
2018-Jul-07 09:58N 46°03' W 073°07'  
Track history (hours):
 
Tides and Currents Weather Stations Pressure Air Temp Water Temp Dewpoint Dewpoint Depression Visibility Wind Speed Wind Dir Waves Ship Positions

Federal Manitou

Last reported at 2018-Jul-17 09:43 UTC. Time now 2018-Jul-19 13:18 UTC.
Position N 45°43' W 085°60'.

Length 185.1 m; beam 23.5 m; draft 9.8 m.

Type: Cargo ship. MMSI: 304603000.

Date/timePositionNaut miles runAvg speedWind from/ knotsBaromVisibWave heightAir tempDewpointWater temp
2018-Jul-17 09:43N 45°43' W 085°60'313.5
2018-Jul-17 09:29N 45°45' W 085°56'713.6
2018-Jul-17 08:58N 45°48' W 085°47'713.6
2018-Jul-17 08:29N 45°52' W 085°39'612.8
2018-Jul-17 08:00N 45°53' W 085°30'613.2
2018-Jul-17 07:30N 45°53' W 085°21'713.3
2018-Jul-17 07:00N 45°52' W 085°12'713.3
2018-Jul-17 06:30N 45°51' W 085°02'713.2
2018-Jul-17 06:00N 45°50' W 084°53'613.1
2018-Jul-17 05:30N 45°49' W 084°44'712.9
2018-Jul-17 05:00N 45°46' W 084°35'613.1
2018-Jul-17 04:30N 45°43' W 084°27'712.8
2018-Jul-17 03:59N 45°41' W 084°18'1011.7
2018-Jul-17 03:07N 45°37' W 084°05'112.4
2018-Jul-17 03:00N 45°36' W 084°03'613.0
2018-Jul-17 02:30N 45°34' W 083°55'713.1
2018-Jul-17 02:00N 45°31' W 083°46'612.8
2018-Jul-17 01:30N 45°28' W 083°38'713.0
2018-Jul-17 01:00N 45°26' W 083°29'712.9
2018-Jul-17 00:29N 45°22' W 083°22'  
2018-Jul-12 13:28N 45°13' W 074°16'511.2
2018-Jul-12 12:59N 45°14' W 074°09'4 8.7
2018-Jul-12 12:29N 45°13' W 074°03'510.0
2018-Jul-12 12:00N 45°16' W 073°57'3 5.1
2018-Jul-12 11:30N 45°18' W 073°56'1 1.5
2018-Jul-12 11:00N 45°19' W 073°55'0 0.2
2018-Jul-12 10:30N 45°19' W 073°55'0 0.0
2018-Jul-12 10:00N 45°19' W 073°55'1 1.1
2018-Jul-12 09:30N 45°20' W 073°55'4 8.4
2018-Jul-12 09:00N 45°22' W 073°50'5 9.8
2018-Jul-12 08:30N 45°24' W 073°44'3 6.6
2018-Jul-12 07:59N 45°24' W 073°39'3 4.7
2018-Jul-12 07:26N 45°24' W 073°35'3 2.5
2018-Jul-12 06:22N 45°25' W 073°31'3 3.2
2018-Jul-12 05:33N 45°27' W 073°30'2 4.1
2018-Jul-12 05:11N 45°29' W 073°30'5 2.7
2018-Jul-12 03:16N 45°34' W 073°31'1 0.7
2018-Jul-12 01:43N 45°35' W 073°30'1 5.9
2018-Jul-12 01:30N 45°36' W 073°30'4 7.2
2018-Jul-12 01:00N 45°39' W 073°28'4 8.3
2018-Jul-12 00:30N 45°43' W 073°26'4 8.7
2018-Jul-12 00:00N 45°47' W 073°22'5 9.3
2018-Jul-11 23:30N 45°50' W 073°17'5 9.7
2018-Jul-11 23:00N 45°54' W 073°13'5 9.6
2018-Jul-11 22:30N 45°59' W 073°11'3 4.5
2018-Jul-11 21:57N 46°01' W 073°10'0 0.0
2018-Jul-11 21:21N 46°01' W 073°10'0 0.0
2018-Jul-11 21:00N 46°01' W 073°10'0 0.0
2018-Jul-11 20:30N 46°01' W 073°10'0 0.0
2018-Jul-11 19:57N 46°01' W 073°10'0 0.0
2018-Jul-11 19:24N 46°01' W 073°10'0 0.0
2018-Jul-11 18:57N 46°01' W 073°10'0 0.0
2018-Jul-11 18:03N 46°01' W 073°10'0 0.0
2018-Jul-11 17:51N 46°01' W 073°10'0 0.0
2018-Jul-11 17:15N 46°01' W 073°10'0 0.0
2018-Jul-11 16:57N 46°01' W 073°10'0 0.0
2018-Jul-11 16:27N 46°01' W 073°10'0 0.0
2018-Jul-11 15:57N 46°01' W 073°10'0 0.0
2018-Jul-11 15:30N 46°01' W 073°10'0 0.0
2018-Jul-11 14:51N 46°01' W 073°10'0 0.0
2018-Jul-11 14:27N 46°01' W 073°10'0 0.0
2018-Jul-11 14:00N 46°01' W 073°10'0 0.0
2018-Jul-11 13:30N 46°01' W 073°10'0 0.0
2018-Jul-11 12:54N 46°01' W 073°10'0 0.0
2018-Jul-11 12:27N 46°01' W 073°10'0 0.0
2018-Jul-11 11:48N 46°01' W 073°10'0 0.0
2018-Jul-11 11:27N 46°01' W 073°10'0 0.0
2018-Jul-11 10:57N 46°01' W 073°10'0 0.0
2018-Jul-11 10:09N 46°01' W 073°10'0 0.0
2018-Jul-11 09:51N 46°01' W 073°10'0 0.0
2018-Jul-11 09:27N 46°01' W 073°10'0 0.0
2018-Jul-11 08:57N 46°01' W 073°10'0 0.0
2018-Jul-11 08:30N 46°01' W 073°10'0 0.0
2018-Jul-11 07:51N 46°01' W 073°10'0 0.0
2018-Jul-11 07:27N 46°01' W 073°10'0 0.1
2018-Jul-11 07:00N 46°01' W 073°10'0 0.0
2018-Jul-11 06:30N 46°01' W 073°10'0 0.0
2018-Jul-11 06:00N 46°01' W 073°10'0 0.0
2018-Jul-11 05:27N 46°01' W 073°10'0 0.0
2018-Jul-11 04:57N 46°01' W 073°10'0 0.0
2018-Jul-11 04:30N 46°01' W 073°10'0 0.0
2018-Jul-11 04:00N 46°01' W 073°10'0 0.0
2018-Jul-11 03:30N 46°01' W 073°10'0 0.0
2018-Jul-11 02:57N 46°01' W 073°10'0 0.0
2018-Jul-11 02:27N 46°01' W 073°10'0 0.0
2018-Jul-11 02:00N 46°01' W 073°10'0 0.0
2018-Jul-11 01:27N 46°01' W 073°10'0 0.1
2018-Jul-11 01:00N 46°01' W 073°10'0 0.2
2018-Jul-11 00:30N 46°01' W 073°10'2 3.7
2018-Jul-11 00:00N 46°03' W 073°09'2 2.9
2018-Jul-10 23:29N 46°03' W 073°07'0 0.0
2018-Jul-10 22:59N 46°03' W 073°07'0 0.0
2018-Jul-10 22:29N 46°03' W 073°07'0 0.0
2018-Jul-10 21:56N 46°03' W 073°07'0 0.0
2018-Jul-10 21:26N 46°03' W 073°07'0 0.0
2018-Jul-10 20:59N 46°03' W 073°07'0 0.0
2018-Jul-10 20:26N 46°03' W 073°07'0 0.0
2018-Jul-10 19:59N 46°03' W 073°07'0 0.0
2018-Jul-10 19:29N 46°03' W 073°07'0 0.0
2018-Jul-10 18:53N 46°03' W 073°07'0 0.0
2018-Jul-10 18:29N 46°03' W 073°07'0 0.0
2018-Jul-10 17:59N 46°03' W 073°07'0 0.0
2018-Jul-10 17:29N 46°03' W 073°07'0 0.0
2018-Jul-10 16:59N 46°03' W 073°07'0 0.0
2018-Jul-10 16:29N 46°03' W 073°07'0 0.0
2018-Jul-10 15:59N 46°03' W 073°07'0 0.0
2018-Jul-10 15:29N 46°03' W 073°07'0 0.0
2018-Jul-10 14:59N 46°03' W 073°07'0 0.0
2018-Jul-10 14:26N 46°03' W 073°07'0 0.0
2018-Jul-10 13:59N 46°03' W 073°07'0 0.0
2018-Jul-10 13:29N 46°03' W 073°07'0 0.0
2018-Jul-10 12:53N 46°03' W 073°07'0 0.0
2018-Jul-10 12:29N 46°03' W 073°07'0 0.0
2018-Jul-10 11:59N 46°03' W 073°07'0 0.0
2018-Jul-10 11:29N 46°03' W 073°07'0 0.0
2018-Jul-10 10:59N 46°03' W 073°07'0 0.0
2018-Jul-10 10:29N 46°03' W 073°07'0 0.0
2018-Jul-10 09:59N 46°03' W 073°07'0 0.0
2018-Jul-10 09:29N 46°03' W 073°07'0 0.0
2018-Jul-10 08:59N 46°03' W 073°07'0 0.0
2018-Jul-10 08:26N 46°03' W 073°07'0 0.0
2018-Jul-10 07:53N 46°03' W 073°07'0 0.0
2018-Jul-10 07:26N 46°03' W 073°07'0 0.0
2018-Jul-10 06:59N 46°03' W 073°07'0 0.0
2018-Jul-10 06:29N 46°03' W 073°07'0 0.0
2018-Jul-10 05:59N 46°03' W 073°07'0 0.0
2018-Jul-10 05:29N 46°03' W 073°07'0 0.0
2018-Jul-10 04:59N 46°03' W 073°07'0 0.0
2018-Jul-10 04:29N 46°03' W 073°07'0 0.0
2018-Jul-10 03:59N 46°03' W 073°07'0 0.0
2018-Jul-10 03:29N 46°03' W 073°07'0 0.0
2018-Jul-10 02:59N 46°03' W 073°07'0 0.0
2018-Jul-10 02:29N 46°03' W 073°07'0 0.0
2018-Jul-10 01:59N 46°03' W 073°07'0 0.0
2018-Jul-10 01:29N 46°03' W 073°07'0 0.0
2018-Jul-10 00:56N 46°03' W 073°07'0 0.0
2018-Jul-10 00:29N 46°03' W 073°07'0 0.0
2018-Jul-09 23:56N 46°03' W 073°07'0 0.0
2018-Jul-09 23:29N 46°03' W 073°07'0 0.0
2018-Jul-09 22:59N 46°03' W 073°07'0 0.0
2018-Jul-09 22:29N 46°03' W 073°07'0 0.0
2018-Jul-09 21:59N 46°03' W 073°07'0 0.0
2018-Jul-09 21:26N 46°03' W 073°07'0 0.0
2018-Jul-09 20:59N 46°03' W 073°07'0 0.0
2018-Jul-09 20:29N 46°03' W 073°07'0 0.0
2018-Jul-09 19:59N 46°03' W 073°07'0 0.0
2018-Jul-09 19:29N 46°03' W 073°07'0 0.0
2018-Jul-09 18:59N 46°03' W 073°07'0 0.0
2018-Jul-09 18:29N 46°03' W 073°07'0 0.0
2018-Jul-09 17:59N 46°03' W 073°07'0 0.0
2018-Jul-09 17:29N 46°03' W 073°07'0 0.0
2018-Jul-09 16:56N 46°03' W 073°07'0 0.0
2018-Jul-09 16:29N 46°03' W 073°07'0 0.0
2018-Jul-09 15:59N 46°03' W 073°07'0 0.0
2018-Jul-09 15:26N 46°03' W 073°07'0 0.0
2018-Jul-09 14:59N 46°03' W 073°07'0 0.0
2018-Jul-09 14:29N 46°03' W 073°07'0 0.0
2018-Jul-09 13:53N 46°03' W 073°07'0 0.0
2018-Jul-09 13:29N 46°03' W 073°07'0 0.0
2018-Jul-09 12:59N 46°03' W 073°07'0 0.0
2018-Jul-09 12:26N 46°03' W 073°07'0 0.0
2018-Jul-09 05:38N 46°03' W 073°07'0 0.0
2018-Jul-09 05:26N 46°03' W 073°07'0 0.0
2018-Jul-09 04:59N 46°03' W 073°07'0 0.0
2018-Jul-09 04:26N 46°03' W 073°07'0 0.0
2018-Jul-09 03:59N 46°03' W 073°07'0 0.0
2018-Jul-09 03:26N 46°03' W 073°07'0 0.0
2018-Jul-09 02:56N 46°03' W 073°07'0 0.0
2018-Jul-09 02:26N 46°03' W 073°07'0 0.0
2018-Jul-09 01:59N 46°03' W 073°07'0 0.0
2018-Jul-09 01:26N 46°03' W 073°07'0 0.0
2018-Jul-09 00:59N 46°03' W 073°07'0 0.0
2018-Jul-09 00:29N 46°03' W 073°07'0 0.0
2018-Jul-08 23:59N 46°03' W 073°07'0 0.0
2018-Jul-08 23:29N 46°03' W 073°07'0 0.0
2018-Jul-08 22:59N 46°03' W 073°07'0 0.0
2018-Jul-08 22:20N 46°03' W 073°07'0 0.0
2018-Jul-08 21:53N 46°03' W 073°07'0 0.0
2018-Jul-08 21:29N 46°03' W 073°07'0 0.0
2018-Jul-08 20:59N 46°03' W 073°07'0 0.0
2018-Jul-08 20:29N 46°03' W 073°07'0 0.0
2018-Jul-08 19:59N 46°03' W 073°07'0 0.0
2018-Jul-08 19:23N 46°03' W 073°07'0 0.0
2018-Jul-08 18:59N 46°03' W 073°07'0 0.0
2018-Jul-08 18:29N 46°03' W 073°07'0 0.0
2018-Jul-08 17:59N 46°03' W 073°07'0 0.0
2018-Jul-08 17:23N 46°03' W 073°07'0 0.0
2018-Jul-08 16:56N 46°03' W 073°07'0 0.0
2018-Jul-08 16:29N 46°03' W 073°07'0 0.0
2018-Jul-08 15:59N 46°03' W 073°07'0 0.0
2018-Jul-08 15:26N 46°03' W 073°07'0 0.0
2018-Jul-08 14:59N 46°03' W 073°07'0 0.0
2018-Jul-08 14:17N 46°03' W 073°07'0 0.0
2018-Jul-08 13:59N 46°03' W 073°07'0 0.0
2018-Jul-08 13:26N 46°03' W 073°07'0 0.0
2018-Jul-08 12:59N 46°03' W 073°07'0 0.0
2018-Jul-08 12:29N 46°03' W 073°07'0 0.0
2018-Jul-08 11:59N 46°03' W 073°07'0 0.0
2018-Jul-08 11:29N 46°03' W 073°07'0 0.0
2018-Jul-08 10:59N 46°03' W 073°07'0 0.0
2018-Jul-08 10:29N 46°03' W 073°07'0 0.0
2018-Jul-08 09:59N 46°03' W 073°07'0 0.0
2018-Jul-08 09:29N 46°03' W 073°07'0 0.0
2018-Jul-08 08:59N 46°03' W 073°07'0 0.0
2018-Jul-08 08:29N 46°03' W 073°07'0 0.0
2018-Jul-08 07:59N 46°03' W 073°07'0 0.0
2018-Jul-08 07:26N 46°03' W 073°07'0 0.0
2018-Jul-08 06:59N 46°03' W 073°07'0 0.0
2018-Jul-08 06:23N 46°03' W 073°07'0 0.0
2018-Jul-08 05:59N 46°03' W 073°07'0 0.0
2018-Jul-08 05:29N 46°03' W 073°07'0 0.0
2018-Jul-08 04:59N 46°03' W 073°07'0 0.0
2018-Jul-08 04:30N 46°03' W 073°07'0 0.6
2018-Jul-08 04:00N 46°03' W 073°07'0 0.7
2018-Jul-08 03:30N 46°03' W 073°07'0 0.0
2018-Jul-08 02:58N 46°03' W 073°07'0 0.0
2018-Jul-08 02:28N 46°03' W 073°07'0 0.0
2018-Jul-08 01:58N 46°03' W 073°07'0 0.0
2018-Jul-08 01:28N 46°03' W 073°07'0 0.0
2018-Jul-08 00:58N 46°03' W 073°07'0 0.0
2018-Jul-08 00:25N 46°03' W 073°07'0 0.0
2018-Jul-07 23:55N 46°03' W 073°07'0 0.0
2018-Jul-07 23:28N 46°03' W 073°07'0 0.0
2018-Jul-07 22:49N 46°03' W 073°07'0 0.0
2018-Jul-07 22:22N 46°03' W 073°07'0 0.0
2018-Jul-07 21:58N 46°03' W 073°07'0 0.0
2018-Jul-07 21:25N 46°03' W 073°07'0 0.0
2018-Jul-07 20:58N 46°03' W 073°07'0 0.0
2018-Jul-07 20:28N 46°03' W 073°07'0 0.0
2018-Jul-07 19:58N 46°03' W 073°07'0 0.0
2018-Jul-07 19:28N 46°03' W 073°07'0 0.0
2018-Jul-07 18:55N 46°03' W 073°07'0 0.0
2018-Jul-07 18:25N 46°03' W 073°07'0 0.0
2018-Jul-07 17:58N 46°03' W 073°07'0 0.0
2018-Jul-07 17:25N 46°03' W 073°07'0 0.0
2018-Jul-07 16:58N 46°03' W 073°07'0 0.0
2018-Jul-07 16:28N 46°03' W 073°07'0 0.0
2018-Jul-07 15:49N 46°03' W 073°07'0 0.0
2018-Jul-07 15:28N 46°03' W 073°07'0 0.0
2018-Jul-07 14:58N 46°03' W 073°07'0 0.0
2018-Jul-07 14:28N 46°03' W 073°07'0 0.0
2018-Jul-07 13:58N 46°03' W 073°07'0 0.0
2018-Jul-07 13:28N 46°03' W 073°07'0 0.0
2018-Jul-07 12:55N 46°03' W 073°07'0 0.0
2018-Jul-07 12:22N 46°03' W 073°07'0 0.0
2018-Jul-07 11:52N 46°03' W 073°07'0 0.0
2018-Jul-07 11:28N 46°03' W 073°07'0 0.0
2018-Jul-07 10:58N 46°03' W 073°07'0 0.0
2018-Jul-07 10:25N 46°03' W 073°07'0 0.0
2018-Jul-07 09:58N 46°03' W 073°07'  

Dump ship's entire track history